Time,TemperatureF,DewpointF,PressureIn,WindDirection,WindDirectionDegrees,WindSpeedMPH,WindSpeedGustMPH,Humidity,HourlyPrecipIn,Conditions,Clouds,dailyrainin,SolarRadiationWatts/m^2,SoftwareType,DateUTC
2014-04-07 00:00:00,40.0,28.0,30.01,SE,126,0.0,1.5,62,0.00,,,0.00,0.00,VWS V14.01,2014-04-07 04:00:00,
2014-04-07 00:01:00,40.0,28.0,30.01,SE,126,0.0,0.0,62,0.00,,,0.00,0.00,VWS V14.01,2014-04-07 04:01:00,
2014-04-07 00:06:00,39.8,28.2,30.00,SE,126,0.0,1.5,63,0.00,,,0.00,0.00,VWS V14.01,2014-04-07 04:06:00,
2014-04-07 00:11:00,39.4,28.2,30.00,SE,126,0.0,1.5,64,0.00,,,0.00,0.00,VWS V14.01,2014-04-07 04:11:00,
2014-04-07 00:16:00,39.1,28.0,30.00,SE,126,0.0,0.0,64,0.00,,,0.00,0.00,VWS V14.01,2014-04-07 04:16:00,
2014-04-07 00:21:00,39.0,27.9,30.00,SE,126,0.0,0.0,64,0.00,,,0.00,0.00,VWS V14.01,2014-04-07 04:21:00,
2014-04-07 00:26:00,38.9,27.8,30.00,SE,126,0.0,1.5,64,0.00,,,0.00,0.00,VWS V14.01,2014-04-07 04:26:00,
2014-04-07 00:31:00,38.9,28.1,29.99,SE,126,0.0,0.0,65,0.00,,,0.00,0.00,VWS V14.01,2014-04-07 04:31:00,
2014-04-07 00:36:00,38.8,28.4,29.99,SE,126,0.0,0.0,66,0.00,,,0.00,0.00,VWS V14.01,2014-04-07 04:36:00,
2014-04-07 00:41:00,38.5,28.5,29.99,SE,126,0.0,1.5,67,0.00,,,0.00,0.00,VWS V14.01,2014-04-07 04:41:00,
2014-04-07 00:46:00,38.2,28.2,29.99,SE,126,0.0,0.0,67,0.00,,,0.00,0.00,VWS V14.01,2014-04-07 04:46:00,
2014-04-07 00:51:00,37.9,28.3,29.99,SE,126,0.0,1.5,68,0.00,,,0.00,0.00,VWS V14.01,2014-04-07 04:51:00,
2014-04-07 00:56:00,37.9,28.6,29.99,SE,126,0.0,1.5,69,0.00,,,0.00,0.00,VWS V14.01,2014-04-07 04:56:00,
2014-04-07 01:01:00,37.7,28.1,29.99,SE,126,0.0,0.0,68,0.00,,,0.00,0.00,VWS V14.01,2014-04-07 05:01:00,
2014-04-07 01:06:00,37.7,28.1,29.98,SE,126,0.0,0.0,68,0.00,,,0.00,0.00,VWS V14.01,2014-04-07 05:06:00,
2014-04-07 01:11:00,37.8,27.8,29.98,SE,126,0.0,0.0,67,0.00,,,0.00,0.00,VWS V14.01,2014-04-07 05:11:00,
2014-04-07 01:16:00,37.7,28.1,29.98,SE,126,0.0,0.0,68,0.00,,,0.00,0.00,VWS V14.01,2014-04-07 05:16:00,
2014-04-07 01:21:00,37.7,28.1,29.98,SE,126,0.0,0.0,68,0.00,,,0.00,0.00,VWS V14.01,2014-04-07 05:21:00,
2014-04-07 01:26:00,37.7,28.1,29.98,SE,126,0.0,0.0,68,0.00,,,0.00,0.00,VWS V14.01,2014-04-07 05:26:00,
2014-04-07 01:31:00,37.5,27.9,29.98,SE,126,0.0,0.0,68,0.00,,,0.00,0.00,VWS V14.01,2014-04-07 05:31:00,
2014-04-07 01:36:00,37.3,28.1,29.98,SE,126,0.0,0.0,69,0.00,,,0.00,0.00,VWS V14.01,2014-04-07 05:36:00,
2014-04-07 01:40:00,37.3,28.1,29.98,SE,126,0.0,0.0,69,0.00,,,0.00,0.00,VWS V14.01,2014-04-07 05:40:00,
2014-04-07 01:45:00,37.4,28.2,29.98,SE,126,0.0,0.0,69,0.00,,,0.00,0.00,VWS V14.01,2014-04-07 05:45:00,
2014-04-07 01:50:00,37.5,29.0,29.98,SE,126,0.0,1.5,71,0.00,,,0.00,0.00,VWS V14.01,2014-04-07 05:50:00,
2014-04-07 01:55:00,37.3,28.8,29.98,SE,126,0.0,1.5,71,0.00,,,0.00,0.00,VWS V14.01,2014-04-07 05:55:00,
2014-04-07 02:00:00,37.2,29.0,29.98,South,178,1.5,1.5,72,0.00,,,0.00,0.00,VWS V14.01,2014-04-07 06:00:00,
2014-04-07 02:05:00,36.9,29.1,29.98,South,178,0.0,1.5,73,0.00,,,0.00,0.00,VWS V14.01,2014-04-07 06:05:00,
2014-04-07 02:10:00,36.6,29.1,29.97,South,174,0.0,1.5,74,0.00,,,0.00,0.00,VWS V14.01,2014-04-07 06:10:00,
2014-04-07 02:15:00,36.4,28.9,29.97,South,174,0.0,1.5,74,0.00,,,0.00,0.00,VWS V14.01,2014-04-07 06:15:00,
2014-04-07 02:20:00,36.2,28.7,29.97,South,174,0.0,0.0,74,0.00,,,0.00,0.00,VWS V14.01,2014-04-07 06:20:00,
2014-04-07 02:25:00,35.9,28.8,29.97,South,174,0.0,0.0,75,0.00,,,0.00,0.00,VWS V14.01,2014-04-07 06:25:00,
2014-04-07 02:30:00,35.7,28.6,29.97,South,174,0.0,0.0,75,0.00,,,0.00,0.00,VWS V14.01,2014-04-07 06:30:00,
2014-04-07 02:35:00,35.7,28.9,29.96,South,174,0.0,0.0,76,0.00,,,0.00,0.00,VWS V14.01,2014-04-07 06:35:00,
2014-04-07 02:40:00,35.6,29.1,29.96,South,174,0.0,0.0,77,0.00,,,0.00,0.00,VWS V14.01,2014-04-07 06:40:00,
2014-04-07 02:45:00,35.4,28.9,29.96,South,174,0.0,0.0,77,0.00,,,0.00,0.00,VWS V14.01,2014-04-07 06:45:00,
2014-04-07 02:50:00,35.4,28.9,29.95,South,174,0.0,0.0,77,0.00,,,0.00,0.00,VWS V14.01,2014-04-07 06:50:00,
2014-04-07 02:55:00,35.3,29.1,29.95,South,174,0.0,0.0,78,0.00,,,0.00,0.00,VWS V14.01,2014-04-07 06:55:00,
2014-04-07 03:00:00,35.1,29.3,29.95,South,174,0.0,0.0,79,0.00,,,0.00,0.00,VWS V14.01,2014-04-07 07:00:00,
2014-04-07 03:05:00,35.0,29.5,29.94,South,175,0.0,0.0,80,0.00,,,0.00,0.00,VWS V14.01,2014-04-07 07:05:00,
2014-04-07 03:10:00,34.9,29.1,29.94,South,174,0.0,0.0,79,0.00,,,0.00,0.00,VWS V14.01,2014-04-07 07:10:00,
2014-04-07 03:15:00,34.9,29.4,29.95,South,174,0.0,0.0,80,0.00,,,0.00,0.00,VWS V14.01,2014-04-07 07:15:00,
2014-04-07 03:20:00,35.1,29.3,29.94,South,174,0.0,0.0,79,0.00,,,0.00,0.00,VWS V14.01,2014-04-07 07:20:00,
2014-04-07 03:25:00,35.3,29.5,29.94,South,174,0.0,0.0,79,0.00,,,0.00,0.00,VWS V14.01,2014-04-07 07:25:00,
2014-04-07 03:30:00,35.5,29.6,29.93,South,175,0.0,0.0,79,0.00,,,0.00,0.00,VWS V14.01,2014-04-07 07:30:00,
2014-04-07 03:35:00,35.5,29.6,29.93,South,175,0.0,0.0,79,0.00,,,0.00,0.00,VWS V14.01,2014-04-07 07:35:00,
2014-04-07 03:40:00,35.5,30.3,29.93,South,175,0.0,0.0,81,0.00,,,0.00,0.00,VWS V14.01,2014-04-07 07:40:00,
2014-04-07 03:45:00,35.4,30.5,29.93,South,174,0.0,0.0,82,0.00,,,0.00,0.00,VWS V14.01,2014-04-07 07:45:00,
2014-04-07 03:50:00,35.3,30.1,29.93,South,174,0.0,0.0,81,0.00,,,0.00,0.00,VWS V14.01,2014-04-07 07:50:00,
2014-04-07 03:55:00,35.3,30.4,29.93,South,174,0.0,0.0,82,0.00,,,0.00,0.00,VWS V14.01,2014-04-07 07:55:00,
2014-04-07 04:00:00,35.3,29.5,29.91,South,174,0.0,0.0,79,0.00,,,0.00,0.00,VWS V14.01,2014-04-07 08:00:00,
2014-04-07 04:05:00,35.5,29.6,29.91,South,174,0.0,0.0,79,0.00,,,0.00,0.00,VWS V14.01,2014-04-07 08:05:00,
2014-04-07 04:10:00,35.5,29.3,29.91,South,174,0.0,0.0,78,0.00,,,0.00,0.00,VWS V14.01,2014-04-07 08:10:00,
2014-04-07 04:15:00,35.4,29.2,29.91,South,174,0.0,0.0,78,0.00,,,0.00,0.00,VWS V14.01,2014-04-07 08:15:00,
2014-04-07 04:20:00,35.3,29.5,29.90,South,175,0.0,0.0,79,0.00,,,0.00,0.00,VWS V14.01,2014-04-07 08:20:00,
2014-04-07 04:25:00,35.3,29.1,29.90,South,174,0.0,0.0,78,0.00,,,0.00,0.00,VWS V14.01,2014-04-07 08:25:00,
2014-04-07 04:30:00,35.3,28.8,29.90,South,175,0.0,0.0,77,0.00,,,0.00,0.00,VWS V14.01,2014-04-07 08:30:00,
2014-04-07 04:35:00,35.3,29.1,29.90,South,174,0.0,0.0,78,0.00,,,0.00,0.00,VWS V14.01,2014-04-07 08:35:00,
2014-04-07 04:40:00,35.2,29.0,29.90,South,174,0.0,0.0,78,0.00,,,0.00,0.00,VWS V14.01,2014-04-07 08:40:00,
2014-04-07 04:45:00,35.0,28.9,29.90,South,174,0.0,0.0,78,0.00,,,0.00,0.00,VWS V14.01,2014-04-07 08:45:00,
2014-04-07 04:50:00,34.8,28.6,29.90,South,174,0.0,0.0,78,0.00,,,0.00,0.00,VWS V14.01,2014-04-07 08:50:00,
2014-04-07 04:55:00,34.7,28.5,29.90,South,174,0.0,0.0,78,0.00,,,0.00,0.00,VWS V14.01,2014-04-07 08:55:00,
2014-04-07 05:00:00,34.7,28.5,29.89,South,174,0.0,0.0,78,0.00,,,0.00,0.00,VWS V14.01,2014-04-07 09:00:00,
2014-04-07 05:05:00,34.7,28.5,29.89,South,174,0.0,0.0,78,0.00,,,0.00,0.00,VWS V14.01,2014-04-07 09:05:00,
2014-04-07 05:10:00,34.8,29.0,29.88,SSE,153,0.0,1.5,79,0.00,,,0.00,0.00,VWS V14.01,2014-04-07 09:10:00,
2014-04-07 05:15:00,35.1,28.6,29.87,SE,146,0.0,1.5,77,0.00,,,0.00,0.00,VWS V14.01,2014-04-07 09:15:00,
2014-04-07 05:20:00,35.4,28.6,29.87,SE,146,0.0,0.0,76,0.00,,,0.00,0.00,VWS V14.01,2014-04-07 09:20:00,
2014-04-07 05:25:00,35.4,28.9,29.87,SE,146,0.0,0.0,77,0.00,,,0.00,0.00,VWS V14.01,2014-04-07 09:25:00,
2014-04-07 05:30:00,35.3,29.1,29.87,SSE,147,0.0,0.0,78,0.00,,,0.00,0.00,VWS V14.01,2014-04-07 09:30:00,
2014-04-07 05:35:00,35.3,28.8,29.87,SSE,147,0.0,0.0,77,0.00,,,0.00,0.00,VWS V14.01,2014-04-07 09:35:00,
2014-04-07 05:40:00,35.2,28.4,29.88,SSE,147,0.0,0.0,76,0.00,,,0.00,0.00,VWS V14.01,2014-04-07 09:40:00,
2014-04-07 05:45:00,35.5,29.0,29.88,SSE,147,0.0,0.0,77,0.00,,,0.00,0.00,VWS V14.01,2014-04-07 09:45:00,
2014-04-07 05:50:00,35.5,29.6,29.89,SSE,147,0.0,0.0,79,0.00,,,0.00,0.00,VWS V14.01,2014-04-07 09:50:00,
2014-04-07 05:54:00,35.4,29.5,29.88,SSE,147,0.0,0.0,79,0.00,,,0.00,0.00,VWS V14.01,2014-04-07 09:54:00,
2014-04-07 05:59:00,35.7,29.5,29.88,SSE,147,0.0,0.0,78,0.00,,,0.00,0.00,VWS V14.01,2014-04-07 09:59:00,
2014-04-07 06:04:00,36.0,29.5,29.88,SSE,147,0.0,0.0,77,0.00,,,0.00,0.00,VWS V14.01,2014-04-07 10:04:00,
2014-04-07 06:07:00,36.1,29.3,29.88,SE,146,0.0,0.0,76,0.00,,,0.00,0.00,VWS V14.01,2014-04-07 10:07:00,
2014-04-07 06:12:00,36.1,29.6,29.88,SE,146,0.0,0.0,77,0.00,,,0.00,0.00,VWS V14.01,2014-04-07 10:12:00,
2014-04-07 06:17:00,36.0,29.8,29.88,SE,146,0.0,0.0,78,0.00,,,0.00,0.00,VWS V14.01,2014-04-07 10:17:00,
2014-04-07 06:22:00,35.9,29.7,29.88,SE,146,0.0,0.0,78,0.00,,,0.00,0.00,VWS V14.01,2014-04-07 10:22:00,
2014-04-07 06:27:00,35.8,29.6,29.88,SSE,147,0.0,0.0,78,0.00,,,0.00,0.00,VWS V14.01,2014-04-07 10:27:00,
2014-04-07 06:32:00,35.7,29.5,29.88,SSE,147,0.0,0.0,78,0.00,,,0.00,0.00,VWS V14.01,2014-04-07 10:32:00,
2014-04-07 06:37:00,35.7,29.5,29.88,SSE,147,0.0,0.0,78,0.00,,,0.00,0.00,VWS V14.01,2014-04-07 10:37:00,
2014-04-07 06:42:00,35.7,29.5,29.88,SSE,147,0.0,0.0,78,0.00,,,0.00,0.00,VWS V14.01,2014-04-07 10:42:00,
2014-04-07 06:47:00,35.6,29.4,29.87,SSE,147,0.0,0.0,78,0.00,,,0.00,0.00,VWS V14.01,2014-04-07 10:47:00,
2014-04-07 06:52:00,35.6,29.1,29.87,SSE,147,0.0,0.0,77,0.00,,,0.00,0.00,VWS V14.01,2014-04-07 10:52:00,
2014-04-07 06:57:00,35.6,29.4,29.87,SSE,147,0.0,0.0,78,0.00,,,0.00,0.00,VWS V14.01,2014-04-07 10:57:00,
2014-04-07 07:02:00,35.6,29.4,29.88,SSE,147,0.0,0.0,78,0.00,,,0.00,0.00,VWS V14.01,2014-04-07 11:02:00,
2014-04-07 07:07:00,35.8,29.9,29.87,SE,146,0.0,0.0,79,0.00,,,0.00,0.00,VWS V14.01,2014-04-07 11:07:00,
2014-04-07 07:12:00,35.9,30.3,29.87,SSE,147,0.0,0.0,80,0.00,,,0.00,0.00,VWS V14.01,2014-04-07 11:12:00,
2014-04-07 07:17:00,36.0,29.8,29.87,SSE,147,0.0,0.0,78,0.00,,,0.00,0.00,VWS V14.01,2014-04-07 11:17:00,
2014-04-07 07:22:00,36.4,30.2,29.86,SE,146,0.0,0.0,78,0.00,,,0.00,0.00,VWS V14.01,2014-04-07 11:22:00,
2014-04-07 07:26:00,36.7,30.2,29.86,SSE,147,0.0,0.0,77,0.00,,,0.00,0.00,VWS V14.01,2014-04-07 11:26:00,
2014-04-07 07:31:00,37.5,31.3,29.86,SSE,147,0.0,0.0,78,0.00,,,0.00,0.00,VWS V14.01,2014-04-07 11:31:00,
2014-04-07 07:36:00,38.1,31.2,29.87,SSW,198,1.5,1.5,76,0.00,,,0.00,0.00,VWS V14.01,2014-04-07 11:36:00,
2014-04-07 07:41:00,39.3,30.7,29.86,SE,141,1.5,6.0,71,0.00,,,0.00,0.00,VWS V14.01,2014-04-07 11:41:00,
2014-04-07 07:46:00,41.3,30.4,29.86,SE,124,0.0,1.5,65,0.00,,,0.00,0.00,VWS V14.01,2014-04-07 11:46:00,
2014-04-07 07:51:00,42.8,30.3,29.86,SE,127,3.0,7.5,61,0.00,,,0.00,0.00,VWS V14.01,2014-04-07 11:51:00,
2014-04-07 07:56:00,43.8,30.8,29.86,ESE,123,0.0,7.5,60,0.00,,,0.00,0.00,VWS V14.01,2014-04-07 11:56:00,
2014-04-07 08:01:00,44.3,30.5,29.86,East,98,0.0,3.0,58,0.00,,,0.00,0.00,VWS V14.01,2014-04-07 12:01:00,
2014-04-07 08:06:00,44.9,30.2,29.86,SE,129,0.0,15.0,56,0.00,,,0.00,0.00,VWS V14.01,2014-04-07 12:06:00,
2014-04-07 08:12:00,45.3,30.5,29.86,SE,134,1.5,15.0,56,0.00,,,0.00,0.00,VWS V14.01,2014-04-07 12:12:00,
2014-04-07 08:17:00,45.7,30.5,29.86,SSE,150,0.0,7.5,55,0.00,,,0.00,0.00,VWS V14.01,2014-04-07 12:17:00,
2014-04-07 08:22:00,46.0,30.8,29.86,SE,143,1.5,7.5,55,0.00,,,0.00,0.00,VWS V14.01,2014-04-07 12:22:00,
2014-04-07 08:27:00,46.3,30.6,29.86,SE,135,1.5,9.0,54,0.00,,,0.00,0.00,VWS V14.01,2014-04-07 12:27:00,
2014-04-07 08:32:00,46.5,30.8,29.86,ESE,122,1.5,3.0,54,0.00,,,0.00,0.00,VWS V14.01,2014-04-07 12:32:00,
2014-04-07 08:37:00,46.7,31.0,29.85,East,98,1.5,12.0,54,0.00,,,0.00,0.00,VWS V14.01,2014-04-07 12:37:00,
2014-04-07 08:42:00,46.9,30.7,29.85,SE,136,1.5,12.0,53,0.00,,,0.00,0.00,VWS V14.01,2014-04-07 12:42:00,
2014-04-07 08:47:00,47.0,30.8,29.85,ESE,121,3.0,4.5,53,0.00,,,0.00,0.00,VWS V14.01,2014-04-07 12:47:00,
2014-04-07 08:52:00,47.1,30.4,29.85,SE,124,9.0,10.5,52,0.00,,,0.00,0.00,VWS V14.01,2014-04-07 12:52:00,
2014-04-07 08:57:00,47.3,31.0,29.85,SE,136,4.5,10.5,53,0.00,,,0.00,0.00,VWS V14.01,2014-04-07 12:57:00,
2014-04-07 09:02:00,47.5,30.8,29.84,SE,144,3.0,4.5,52,0.00,,,0.00,0.00,VWS V14.01,2014-04-07 13:02:00,
2014-04-07 09:07:00,47.6,30.9,29.84,SE,139,7.5,13.5,52,0.00,,,0.00,0.00,VWS V14.01,2014-04-07 13:07:00,
2014-04-07 09:12:00,47.7,31.0,29.83,SE,146,3.0,13.5,52,0.00,,,0.00,0.00,VWS V14.01,2014-04-07 13:12:00,
2014-04-07 09:17:00,47.9,31.1,29.83,ESE,116,1.5,9.0,52,0.00,,,0.00,0.00,VWS V14.01,2014-04-07 13:17:00,
2014-04-07 09:22:00,48.0,31.2,29.83,East,87,3.0,10.5,52,0.00,,,0.00,0.00,VWS V14.01,2014-04-07 13:22:00,
2014-04-07 09:27:00,48.1,31.3,29.82,ESE,115,6.0,15.0,52,0.00,,,0.00,0.00,VWS V14.01,2014-04-07 13:27:00,
2014-04-07 09:32:00,48.3,31.5,29.82,East,87,1.5,9.0,52,0.00,,,0.00,0.00,VWS V14.01,2014-04-07 13:32:00,
2014-04-07 09:37:00,48.4,31.1,29.82,SE,144,4.5,16.5,51,0.00,,,0.00,0.00,VWS V14.01,2014-04-07 13:37:00,
2014-04-07 09:42:00,48.6,31.8,29.81,SSE,158,1.5,16.5,52,0.00,,,0.00,0.00,VWS V14.01,2014-04-07 13:42:00,
2014-04-07 09:47:00,48.8,32.0,29.81,East,82,1.5,4.5,52,0.00,,,0.00,0.00,VWS V14.01,2014-04-07 13:47:00,
2014-04-07 09:52:00,49.0,32.2,29.80,SE,141,0.0,10.5,52,0.00,,,0.00,0.00,VWS V14.01,2014-04-07 13:52:00,
2014-04-07 09:57:00,49.2,31.9,29.81,SE,126,3.0,13.5,51,0.00,,,0.00,0.00,VWS V14.01,2014-04-07 13:57:00,
2014-04-07 10:02:00,49.3,32.4,29.81,ESE,121,1.5,3.0,52,0.00,,,0.00,0.00,VWS V14.01,2014-04-07 14:02:00,
2014-04-07 10:07:00,49.5,32.6,29.81,ESE,103,1.5,6.0,52,0.00,,,0.00,0.00,VWS V14.01,2014-04-07 14:07:00,
2014-04-07 10:12:00,49.7,32.8,29.81,ENE,77,3.0,6.0,52,0.00,,,0.00,0.00,VWS V14.01,2014-04-07 14:12:00,
2014-04-07 10:17:00,50.0,32.6,29.81,SE,132,0.0,1.5,51,0.00,,,0.00,0.00,VWS V14.01,2014-04-07 14:17:00,
2014-04-07 10:22:00,50.2,33.3,29.81,SSE,153,0.0,3.0,52,0.00,,,0.00,0.00,VWS V14.01,2014-04-07 14:22:00,
2014-04-07 10:27:00,50.5,33.5,29.82,SE,145,0.0,4.5,52,0.00,,,0.00,0.00,VWS V14.01,2014-04-07 14:27:00,
2014-04-07 10:32:00,50.8,33.8,29.82,SE,131,4.5,4.5,52,0.00,,,0.00,0.00,VWS V14.01,2014-04-07 14:32:00,
2014-04-07 10:37:00,51.1,34.1,29.82,SE,124,0.0,4.5,52,0.00,,,0.00,0.00,VWS V14.01,2014-04-07 14:37:00,
2014-04-07 10:42:00,51.3,33.3,29.82,SE,133,0.0,4.5,50,0.00,,,0.00,0.00,VWS V14.01,2014-04-07 14:42:00,
2014-04-07 10:47:00,51.6,33.6,29.82,SE,132,1.5,4.5,50,0.00,,,0.00,0.00,VWS V14.01,2014-04-07 14:47:00,
2014-04-07 10:52:00,51.8,34.3,29.81,ESE,121,0.0,4.5,51,0.00,,,0.00,0.00,VWS V14.01,2014-04-07 14:52:00,
2014-04-07 10:56:00,52.1,34.5,29.81,SSE,162,0.0,4.5,51,0.00,,,0.00,0.00,VWS V14.01,2014-04-07 14:56:00,
2014-04-07 11:01:00,52.4,34.8,29.81,SE,142,0.0,0.0,51,0.00,,,0.00,0.00,VWS V14.01,2014-04-07 15:01:00,
2014-04-07 11:06:00,52.6,34.5,29.81,SE,126,1.5,1.5,50,0.00,,,0.00,0.00,VWS V14.01,2014-04-07 15:06:00,
2014-04-07 11:11:00,52.7,34.6,29.80,SSE,148,3.0,4.5,50,0.00,,,0.00,0.00,VWS V14.01,2014-04-07 15:11:00,
2014-04-07 11:16:00,52.8,35.2,29.80,ESE,111,0.0,1.5,51,0.00,,,0.00,0.00,VWS V14.01,2014-04-07 15:16:00,
2014-04-07 11:21:00,52.8,35.7,29.80,East,90,0.0,6.0,52,0.00,,,0.00,0.00,VWS V14.01,2014-04-07 15:21:00,
2014-04-07 11:26:00,52.7,34.6,29.79,SE,138,0.0,7.5,50,0.00,,,0.00,0.00,VWS V14.01,2014-04-07 15:26:00,
2014-04-07 11:31:00,52.8,34.7,29.79,SE,139,9.0,9.0,50,0.00,,,0.00,0.00,VWS V14.01,2014-04-07 15:31:00,
2014-04-07 11:36:00,52.8,35.2,29.78,SSE,151,3.0,9.0,51,0.00,,,0.00,0.00,VWS V14.01,2014-04-07 15:36:00,
2014-04-07 11:41:00,52.8,36.2,29.78,East,84,1.5,9.0,53,0.00,,,0.00,0.00,VWS V14.01,2014-04-07 15:41:00,
2014-04-07 11:46:00,52.9,35.8,29.77,ENE,76,0.0,1.5,52,0.00,,,0.00,0.00,VWS V14.01,2014-04-07 15:46:00,
2014-04-07 11:51:00,53.1,36.0,29.77,East,79,4.5,4.5,52,0.00,,,0.00,0.00,VWS V14.01,2014-04-07 15:51:00,
2014-04-07 11:56:00,53.3,36.6,29.77,ESE,120,0.0,7.5,53,0.00,,,0.00,0.00,VWS V14.01,2014-04-07 15:56:00,
2014-04-07 12:01:00,53.6,37.4,29.77,ENE,58,1.5,3.0,54,0.00,,,0.00,0.00,VWS V14.01,2014-04-07 16:01:00,
2014-04-07 12:06:00,53.9,36.2,29.76,ESE,111,4.5,7.5,51,0.00,,,0.00,0.00,VWS V14.01,2014-04-07 16:06:00,
2014-04-07 12:11:00,54.1,35.9,29.75,East,93,4.5,7.5,50,0.00,,,0.00,0.00,VWS V14.01,2014-04-07 16:11:00,
2014-04-07 12:16:00,54.2,36.5,29.75,ENE,68,3.0,4.5,51,0.00,,,0.00,0.00,VWS V14.01,2014-04-07 16:16:00,
2014-04-07 12:21:00,54.4,36.2,29.74,ENE,71,1.5,4.5,50,0.00,,,0.00,0.00,VWS V14.01,2014-04-07 16:21:00,
2014-04-07 12:26:00,54.6,36.8,29.74,NE,49,1.5,6.0,51,0.00,,,0.00,0.00,VWS V14.01,2014-04-07 16:26:00,
2014-04-07 12:31:00,54.9,36.6,29.74,ESE,121,0.0,3.0,50,0.00,,,0.00,0.00,VWS V14.01,2014-04-07 16:31:00,
2014-04-07 12:36:00,55.2,36.9,29.74,SE,136,0.0,9.0,50,0.00,,,0.00,0.00,VWS V14.01,2014-04-07 16:36:00,
2014-04-07 12:41:00,55.5,36.7,29.74,NE,45,4.5,10.5,49,0.00,,,0.00,0.00,VWS V14.01,2014-04-07 16:41:00,
2014-04-07 12:46:00,55.5,36.2,29.74,SE,136,6.0,9.0,48,0.00,,,0.00,0.00,VWS V14.01,2014-04-07 16:46:00,
2014-04-07 12:51:00,55.8,36.9,29.74,SSE,164,7.5,9.0,49,0.00,,,0.00,0.00,VWS V14.01,2014-04-07 16:51:00,
2014-04-07 12:56:00,56.2,37.3,29.74,ENE,69,1.5,9.0,49,0.00,,,0.00,0.00,VWS V14.01,2014-04-07 16:56:00,
2014-04-07 13:01:00,56.8,37.3,29.74,ENE,72,3.0,4.5,48,0.00,,,0.00,0.00,VWS V14.01,2014-04-07 17:01:00,
2014-04-07 13:06:00,57.1,37.1,29.73,ENE,75,0.0,6.0,47,0.00,,,0.00,0.00,VWS V14.01,2014-04-07 17:06:00,
2014-04-07 13:11:00,57.4,37.3,29.73,ENE,75,4.5,6.0,47,0.00,,,0.00,0.00,VWS V14.01,2014-04-07 17:11:00,
2014-04-07 13:16:00,57.2,37.2,29.73,ENE,76,3.0,4.5,47,0.00,,,0.00,0.00,VWS V14.01,2014-04-07 17:16:00,
2014-04-07 13:21:00,57.0,37.5,29.72,ENE,71,1.5,6.0,48,0.00,,,0.00,0.00,VWS V14.01,2014-04-07 17:21:00,
2014-04-07 13:26:00,56.8,37.3,29.72,SE,143,1.5,6.0,48,0.00,,,0.00,0.00,VWS V14.01,2014-04-07 17:26:00,
2014-04-07 13:31:00,56.9,37.4,29.71,East,81,1.5,4.5,48,0.00,,,0.00,0.00,VWS V14.01,2014-04-07 17:31:00,
2014-04-07 13:36:00,56.8,37.9,29.70,SSE,152,0.0,6.0,49,0.00,,,0.00,0.00,VWS V14.01,2014-04-07 17:36:00,
2014-04-07 13:41:00,57.0,38.0,29.70,ENE,75,3.0,6.0,49,0.00,,,0.00,0.00,VWS V14.01,2014-04-07 17:41:00,
2014-04-07 13:46:00,57.1,38.1,29.70,East,98,0.0,3.0,49,0.00,,,0.00,0.00,VWS V14.01,2014-04-07 17:46:00,
2014-04-07 13:51:00,57.2,37.7,29.69,East,86,3.0,12.0,48,0.00,,,0.00,0.00,VWS V14.01,2014-04-07 17:51:00,
2014-04-07 13:56:00,57.0,37.5,29.70,ENE,71,1.5,12.0,48,0.00,,,0.00,0.00,VWS V14.01,2014-04-07 17:56:00,
2014-04-07 14:01:00,56.8,37.9,29.69,SSE,156,4.5,9.0,49,0.00,,,0.00,0.00,VWS V14.01,2014-04-07 18:01:00,
2014-04-07 14:06:00,56.5,38.1,29.69,ENE,70,7.5,9.0,50,0.00,,,0.00,0.00,VWS V14.01,2014-04-07 18:06:00,
2014-04-07 14:11:00,56.3,38.4,29.68,ESE,108,3.0,9.0,51,0.00,,,0.00,0.00,VWS V14.01,2014-04-07 18:11:00,
2014-04-07 14:16:00,56.1,39.2,29.67,SE,141,4.5,4.5,53,0.00,,,0.00,0.00,VWS V14.01,2014-04-07 18:16:00,
2014-04-07 14:21:00,55.8,38.9,29.68,ESE,115,1.5,9.0,53,0.00,,,0.00,0.00,VWS V14.01,2014-04-07 18:21:00,
2014-04-07 14:26:00,55.5,38.7,29.68,ENE,63,3.0,15.0,53,0.00,,,0.00,0.00,VWS V14.01,2014-04-07 18:26:00,
2014-04-07 14:31:00,55.1,38.8,29.67,SE,141,3.0,3.0,54,0.00,,,0.00,0.00,VWS V14.01,2014-04-07 18:31:00,
2014-04-07 14:36:00,54.9,38.6,29.67,ENE,67,6.0,12.0,54,0.00,,,0.00,0.00,VWS V14.01,2014-04-07 18:36:00,
2014-04-07 14:41:00,54.5,40.0,29.67,SE,139,0.0,12.0,58,0.00,,,0.00,0.00,VWS V14.01,2014-04-07 18:41:00,
2014-04-07 14:46:00,53.7,41.0,29.67,ESE,110,3.0,10.5,62,0.00,,,0.00,0.00,VWS V14.01,2014-04-07 18:46:00,
2014-04-07 14:51:00,52.5,41.5,29.66,ENE,68,6.0,12.0,66,0.00,,,0.00,0.00,VWS V14.01,2014-04-07 18:51:00,
2014-04-07 14:56:00,51.6,41.4,29.65,SSE,150,6.0,12.0,68,0.00,,,0.00,0.00,VWS V14.01,2014-04-07 18:56:00,
2014-04-07 15:01:00,51.1,41.3,29.65,SE,141,3.0,3.0,69,0.00,,,0.00,0.00,VWS V14.01,2014-04-07 19:01:00,
2014-04-07 15:06:00,50.9,41.5,29.64,East,93,1.5,9.0,70,0.00,,,0.00,0.00,VWS V14.01,2014-04-07 19:06:00,
2014-04-07 15:11:00,50.7,42.4,29.64,ESE,123,1.5,9.0,73,0.01,,,0.01,0.00,VWS V14.01,2014-04-07 19:11:00,
2014-04-07 15:16:00,50.5,42.5,29.63,East,79,3.0,3.0,74,0.01,,,0.01,0.00,VWS V14.01,2014-04-07 19:16:00,
2014-04-07 15:21:00,50.2,42.9,29.63,East,94,1.5,4.5,76,0.01,,,0.01,0.00,VWS V14.01,2014-04-07 19:21:00,
2014-04-07 15:26:00,50.0,43.1,29.62,SSE,160,0.0,7.5,77,0.01,,,0.01,0.00,VWS V14.01,2014-04-07 19:26:00,
2014-04-07 15:31:00,49.6,43.4,29.62,East,88,0.0,3.0,79,0.01,,,0.01,0.00,VWS V14.01,2014-04-07 19:31:00,
2014-04-07 15:36:00,49.2,44.0,29.62,SE,135,0.0,4.5,82,0.02,,,0.02,0.00,VWS V14.01,2014-04-07 19:36:00,
2014-04-07 15:41:00,48.7,44.4,29.61,ENE,77,3.0,6.0,85,0.03,,,0.03,0.00,VWS V14.01,2014-04-07 19:41:00,
2014-04-07 15:46:00,48.2,43.9,29.59,ENE,58,3.0,6.0,85,0.04,,,0.04,0.00,VWS V14.01,2014-04-07 19:46:00,
2014-04-07 15:51:00,47.8,43.8,29.58,ENE,63,3.0,12.0,86,0.04,,,0.04,0.00,VWS V14.01,2014-04-07 19:51:00,
2014-04-07 15:56:00,47.5,44.1,29.58,NE,53,4.5,12.0,88,0.05,,,0.05,0.00,VWS V14.01,2014-04-07 19:56:00,
2014-04-07 16:01:00,47.3,43.9,29.57,East,99,3.0,10.5,88,0.05,,,0.05,0.00,VWS V14.01,2014-04-07 20:01:00,
2014-04-07 16:06:00,47.2,44.1,29.56,ENE,70,7.5,16.5,89,0.05,,,0.05,0.00,VWS V14.01,2014-04-07 20:06:00,
2014-04-07 16:11:00,47.2,44.4,29.54,ESE,114,3.0,16.5,90,0.05,,,0.05,0.00,VWS V14.01,2014-04-07 20:11:00,
2014-04-07 16:16:00,47.1,44.3,29.52,SE,134,3.0,12.0,90,0.05,,,0.06,0.00,VWS V14.01,2014-04-07 20:16:00,
2014-04-07 16:21:00,47.1,44.6,29.51,NE,53,3.0,18.0,91,0.05,,,0.06,0.00,VWS V14.01,2014-04-07 20:21:00,
2014-04-07 16:26:00,47.1,44.6,29.51,ENE,62,7.5,18.0,91,0.05,,,0.06,0.00,VWS V14.01,2014-04-07 20:26:00,
2014-04-07 16:31:00,47.3,45.1,29.51,ESE,112,9.0,10.5,92,0.05,,,0.06,0.00,VWS V14.01,2014-04-07 20:31:00,
2014-04-07 16:36:00,47.3,44.8,29.51,ENE,70,4.5,15.0,91,0.05,,,0.06,0.00,VWS V14.01,2014-04-07 20:36:00,
2014-04-07 16:41:00,47.4,44.9,29.51,SE,136,3.0,18.0,91,0.05,,,0.06,0.00,VWS V14.01,2014-04-07 20:41:00,
2014-04-07 16:46:00,47.3,44.8,29.50,East,101,7.5,10.5,91,0.02,,,0.06,0.00,VWS V14.01,2014-04-07 20:46:00,
2014-04-07 16:51:00,47.3,44.8,29.51,ENE,73,4.5,12.0,91,0.02,,,0.06,0.00,VWS V14.01,2014-04-07 20:51:00,
2014-04-07 16:56:00,47.3,44.5,29.53,ENE,57,1.5,13.5,90,0.02,,,0.06,0.00,VWS V14.01,2014-04-07 20:56:00,
2014-04-07 17:01:00,47.4,44.6,29.54,SE,140,1.5,1.5,90,0.01,,,0.06,0.00,VWS V14.01,2014-04-07 21:01:00,
2014-04-07 17:06:00,47.3,44.5,29.55,SE,128,4.5,6.0,90,0.02,,,0.07,0.00,VWS V14.01,2014-04-07 21:06:00,
2014-04-07 17:11:00,47.2,44.7,29.54,ESE,116,1.5,7.5,91,0.04,,,0.09,0.00,VWS V14.01,2014-04-07 21:11:00,
2014-04-07 17:16:00,47.0,44.5,29.54,ESE,123,1.5,3.0,91,0.04,,,0.10,0.00,VWS V14.01,2014-04-07 21:16:00,
2014-04-07 17:21:00,46.8,44.6,29.55,ENE,65,0.0,7.5,92,0.06,,,0.12,0.00,VWS V14.01,2014-04-07 21:21:00,
2014-04-07 17:26:00,46.7,44.5,29.55,ENE,59,3.0,7.5,92,0.07,,,0.13,0.00,VWS V14.01,2014-04-07 21:26:00,
2014-04-07 17:31:00,46.6,44.7,29.52,ENE,60,4.5,4.5,93,0.09,,,0.15,0.00,VWS V14.01,2014-04-07 21:31:00,
2014-04-07 17:36:00,46.2,44.3,29.50,ENE,63,4.5,9.0,93,0.11,,,0.17,0.00,VWS V14.01,2014-04-07 21:36:00,
2014-04-07 17:41:00,45.9,44.0,29.51,SE,127,1.5,9.0,93,0.12,,,0.18,0.00,VWS V14.01,2014-04-07 21:41:00,
2014-04-07 17:46:00,45.7,44.1,29.51,ESE,113,0.0,4.5,94,0.12,,,0.18,0.00,VWS V14.01,2014-04-07 21:46:00,
2014-04-07 17:51:00,45.7,44.1,29.52,ESE,122,1.5,4.5,94,0.13,,,0.19,0.00,VWS V14.01,2014-04-07 21:51:00,
2014-04-07 17:56:00,45.6,44.0,29.51,ENE,76,1.5,4.5,94,0.13,,,0.19,0.00,VWS V14.01,2014-04-07 21:56:00,
2014-04-07 18:01:00,45.5,43.9,29.50,NE,38,3.0,4.5,94,0.13,,,0.19,0.00,VWS V14.01,2014-04-07 22:01:00,
2014-04-07 18:06:00,45.4,43.8,29.50,SE,131,0.0,4.5,94,0.13,,,0.19,0.00,VWS V14.01,2014-04-07 22:06:00,
2014-04-07 18:11:00,45.4,43.8,29.51,ESE,107,0.0,4.5,94,0.13,,,0.19,0.00,VWS V14.01,2014-04-07 22:11:00,
2014-04-07 18:16:00,45.3,43.7,29.48,NE,48,3.0,4.5,94,0.10,,,0.20,0.00,VWS V14.01,2014-04-07 22:16:00,
2014-04-07 18:21:00,45.3,43.7,29.49,NE,35,0.0,4.5,94,0.11,,,0.21,0.00,VWS V14.01,2014-04-07 22:21:00,
2014-04-07 18:26:00,45.3,43.7,29.48,East,90,1.5,4.5,94,0.12,,,0.22,0.00,VWS V14.01,2014-04-07 22:26:00,
2014-04-07 18:32:00,45.2,43.9,29.47,NE,56,1.5,3.0,95,0.08,,,0.22,0.00,VWS V14.01,2014-04-07 22:32:00,
2014-04-07 18:37:00,45.2,43.9,29.48,East,99,0.0,4.5,95,0.08,,,0.22,0.00,VWS V14.01,2014-04-07 22:37:00,
2014-04-07 18:42:00,45.1,43.8,29.48,SE,129,0.0,6.0,95,0.08,,,0.22,0.00,VWS V14.01,2014-04-07 22:42:00,
2014-04-07 18:47:00,45.0,43.7,29.49,SSE,161,0.0,3.0,95,0.05,,,0.23,0.00,VWS V14.01,2014-04-07 22:47:00,
2014-04-07 18:52:00,45.0,43.7,29.46,NE,37,3.0,4.5,95,0.06,,,0.24,0.00,VWS V14.01,2014-04-07 22:52:00,
2014-04-07 18:57:00,44.9,43.6,29.49,SE,128,0.0,4.5,95,0.06,,,0.24,0.00,VWS V14.01,2014-04-07 22:57:00,
2014-04-07 19:01:00,44.8,43.5,29.47,NE,44,0.0,3.0,95,0.06,,,0.25,0.00,VWS V14.01,2014-04-07 23:01:00,
2014-04-07 19:06:00,44.8,43.5,29.47,East,94,0.0,3.0,95,0.08,,,0.27,0.00,VWS V14.01,2014-04-07 23:06:00,
2014-04-07 19:11:00,44.8,43.5,29.46,NE,48,1.5,4.5,95,0.09,,,0.28,0.00,VWS V14.01,2014-04-07 23:11:00,
2014-04-07 19:16:00,44.8,43.5,29.47,NNE,30,3.0,3.0,95,0.09,,,0.29,0.00,VWS V14.01,2014-04-07 23:16:00,
2014-04-07 19:21:00,44.7,43.4,29.46,NNE,30,1.5,4.5,95,0.09,,,0.29,0.00,VWS V14.01,2014-04-07 23:21:00,
2014-04-07 19:26:00,44.7,43.4,29.46,NE,35,1.5,6.0,95,0.09,,,0.29,0.00,VWS V14.01,2014-04-07 23:26:00,
2014-04-07 19:31:00,44.7,43.6,29.45,NE,34,0.0,1.5,96,0.07,,,0.29,0.00,VWS V14.01,2014-04-07 23:31:00,
2014-04-07 19:36:00,44.8,43.7,29.45,NNE,33,4.5,6.0,96,0.07,,,0.29,0.00,VWS V14.01,2014-04-07 23:36:00,
2014-04-07 19:41:00,44.7,43.6,29.45,WNW,300,0.0,6.0,96,0.08,,,0.30,0.00,VWS V14.01,2014-04-07 23:41:00,
2014-04-07 19:46:00,44.7,43.6,29.44,NNE,31,4.5,4.5,96,0.09,,,0.31,0.00,VWS V14.01,2014-04-07 23:46:00,
2014-04-07 19:51:00,44.6,43.5,29.44,NE,41,3.0,7.5,96,0.10,,,0.32,0.00,VWS V14.01,2014-04-07 23:51:00,
2014-04-07 19:56:00,44.5,43.4,29.44,NNE,27,1.5,7.5,96,0.10,,,0.32,0.00,VWS V14.01,2014-04-07 23:56:00,
2014-04-07 20:01:00,44.4,43.3,29.43,NE,41,1.5,1.5,96,0.08,,,0.33,0.00,VWS V14.01,2014-04-08 00:01:00,
2014-04-07 20:06:00,44.4,43.3,29.41,ENE,72,1.5,4.5,96,0.10,,,0.35,0.00,VWS V14.01,2014-04-08 00:06:00,
2014-04-07 20:11:00,44.3,43.2,29.40,ENE,71,3.0,6.0,96,0.10,,,0.35,0.00,VWS V14.01,2014-04-08 00:11:00,
2014-04-07 20:16:00,44.4,43.3,29.41,NNE,20,1.5,1.5,96,0.07,,,0.36,0.00,VWS V14.01,2014-04-08 00:16:00,
2014-04-07 20:21:00,44.3,43.2,29.43,WNW,291,1.5,3.0,96,0.07,,,0.36,0.00,VWS V14.01,2014-04-08 00:21:00,
2014-04-07 20:26:00,44.2,43.1,29.43,NE,37,6.0,6.0,96,0.07,,,0.36,0.00,VWS V14.01,2014-04-08 00:26:00,
2014-04-07 20:31:00,43.3,42.2,29.43,NNE,32,3.0,4.5,96,0.07,,,0.36,0.00,VWS V14.01,2014-04-08 00:31:00,
2014-04-07 20:36:00,42.9,41.8,29.43,NNE,23,6.0,6.0,96,0.07,,,0.36,0.00,VWS V14.01,2014-04-08 00:36:00,
2014-04-07 20:41:00,42.8,41.7,29.42,ENE,65,1.5,6.0,96,0.07,,,0.36,0.00,VWS V14.01,2014-04-08 00:41:00,
2014-04-07 20:46:00,42.8,42.0,29.42,NE,41,3.0,3.0,97,0.05,,,0.36,0.00,VWS V14.01,2014-04-08 00:46:00,
2014-04-07 20:51:00,42.7,41.9,29.42,NNE,15,0.0,4.5,97,0.05,,,0.36,0.00,VWS V14.01,2014-04-08 00:51:00,
2014-04-07 20:56:00,42.7,41.9,29.41,NNE,27,4.5,6.0,97,0.06,,,0.37,0.00,VWS V14.01,2014-04-08 00:56:00,
2014-04-07 21:01:00,42.8,42.0,29.42,North,2,0.0,1.5,97,0.04,,,0.37,0.00,VWS V14.01,2014-04-08 01:01:00,
2014-04-07 21:06:00,42.6,41.8,29.42,NNE,14,1.5,4.5,97,0.06,,,0.39,0.00,VWS V14.01,2014-04-08 01:06:00,
2014-04-07 21:11:00,42.4,41.6,29.41,NNE,33,4.5,4.5,97,0.06,,,0.39,0.00,VWS V14.01,2014-04-08 01:11:00,
2014-04-07 21:16:00,42.3,41.5,29.41,NE,41,4.5,4.5,97,0.03,,,0.39,0.00,VWS V14.01,2014-04-08 01:16:00,
2014-04-07 21:21:00,42.3,41.5,29.41,NNE,30,3.0,10.5,97,0.03,,,0.39,0.00,VWS V14.01,2014-04-08 01:21:00,
2014-04-07 21:26:00,42.3,41.5,29.40,NE,44,6.0,10.5,97,0.04,,,0.40,0.00,VWS V14.01,2014-04-08 01:26:00,
2014-04-07 21:31:00,42.3,41.5,29.40,NE,36,6.0,6.0,97,0.04,,,0.40,0.00,VWS V14.01,2014-04-08 01:31:00,
2014-04-07 21:36:00,42.3,41.5,29.40,NE,40,3.0,6.0,97,0.04,,,0.40,0.00,VWS V14.01,2014-04-08 01:36:00,
2014-04-07 21:41:00,42.2,41.4,29.40,NNE,21,1.5,7.5,97,0.04,,,0.40,0.00,VWS V14.01,2014-04-08 01:41:00,
2014-04-07 21:46:00,42.1,41.3,29.39,NNE,18,6.0,7.5,97,0.04,,,0.40,0.00,VWS V14.01,2014-04-08 01:46:00,
2014-04-07 21:51:00,42.1,41.3,29.39,NNE,31,4.5,7.5,97,0.04,,,0.40,0.00,VWS V14.01,2014-04-08 01:51:00,
2014-04-07 21:56:00,42.0,41.2,29.39,ENE,66,1.5,7.5,97,0.04,,,0.40,0.00,VWS V14.01,2014-04-08 01:56:00,
2014-04-07 22:01:00,42.0,41.2,29.39,NE,53,1.5,1.5,97,0.03,,,0.40,0.00,VWS V14.01,2014-04-08 02:01:00,
2014-04-07 22:06:00,42.0,41.2,29.38,NE,53,3.0,6.0,97,0.03,,,0.40,0.00,VWS V14.01,2014-04-08 02:06:00,
2014-04-07 22:11:00,42.1,41.3,29.39,NNE,25,1.5,6.0,97,0.04,,,0.41,0.00,VWS V14.01,2014-04-08 02:11:00,
2014-04-07 22:16:00,42.1,41.3,29.39,NNW,346,0.0,4.5,97,0.02,,,0.41,0.00,VWS V14.01,2014-04-08 02:16:00,
2014-04-07 22:21:00,42.0,41.2,29.41,West,280,6.0,10.5,97,0.02,,,0.41,0.00,VWS V14.01,2014-04-08 02:21:00,
2014-04-07 22:26:00,40.4,39.3,29.39,NNE,18,4.5,15.0,96,0.02,,,0.41,0.00,VWS V14.01,2014-04-08 02:26:00,
2014-04-07 22:31:00,39.8,38.8,29.40,North,11,3.0,4.5,96,0.01,,,0.41,0.00,VWS V14.01,2014-04-08 02:31:00,
2014-04-07 22:36:00,39.7,38.9,29.41,North,352,0.0,4.5,97,0.01,,,0.41,0.00,VWS V14.01,2014-04-08 02:36:00,
2014-04-07 22:41:00,39.4,38.6,29.40,NNE,27,4.5,7.5,97,0.01,,,0.41,0.00,VWS V14.01,2014-04-08 02:41:00,
2014-04-07 22:46:00,39.2,38.4,29.39,NE,45,1.5,3.0,97,0.01,,,0.41,0.00,VWS V14.01,2014-04-08 02:46:00,
2014-04-07 22:51:00,39.0,38.2,29.39,NW,321,1.5,6.0,97,0.01,,,0.41,0.00,VWS V14.01,2014-04-08 02:51:00,
2014-04-07 22:56:00,38.8,38.0,29.39,NNE,33,3.0,7.5,97,0.01,,,0.41,0.00,VWS V14.01,2014-04-08 02:56:00,
2014-04-07 23:01:00,38.6,37.8,29.39,NE,44,1.5,4.5,97,0.01,,,0.41,0.00,VWS V14.01,2014-04-08 03:01:00,
2014-04-07 23:06:00,38.4,37.6,29.39,NNE,31,0.0,6.0,97,0.01,,,0.41,0.00,VWS V14.01,2014-04-08 03:06:00,
2014-04-07 23:11:00,38.5,37.7,29.39,NE,34,1.5,6.0,97,0.02,,,0.42,0.00,VWS V14.01,2014-04-08 03:11:00,
2014-04-07 23:16:00,38.4,37.6,29.39,NE,34,0.0,0.0,97,0.01,,,0.42,0.00,VWS V14.01,2014-04-08 03:16:00,
2014-04-07 23:21:00,38.4,37.6,29.39,NE,34,0.0,4.5,97,0.01,,,0.42,0.00,VWS V14.01,2014-04-08 03:21:00,
2014-04-07 23:26:00,38.5,37.7,29.39,NNE,30,1.5,4.5,97,0.01,,,0.42,0.00,VWS V14.01,2014-04-08 03:26:00,
2014-04-07 23:31:00,38.4,37.6,29.38,NNE,24,1.5,1.5,97,0.03,,,0.44,0.00,VWS V14.01,2014-04-08 03:31:00,
2014-04-07 23:36:00,38.7,38.2,29.37,NE,35,3.0,4.5,98,0.04,,,0.45,0.00,VWS V14.01,2014-04-08 03:36:00,
2014-04-07 23:41:00,38.9,38.4,29.36,ENE,78,1.5,6.0,98,0.05,,,0.46,0.00,VWS V14.01,2014-04-08 03:41:00,
2014-04-07 23:46:00,39.0,38.5,29.36,ENE,60,3.0,3.0,98,0.06,,,0.47,0.00,VWS V14.01,2014-04-08 03:46:00,
2014-04-07 23:51:00,39.2,38.7,29.34,NNE,24,6.0,6.0,98,0.07,,,0.48,0.00,VWS V14.01,2014-04-08 03:51:00,
2014-04-07 23:56:00,39.3,38.8,29.34,NNW,328,4.5,7.5,98,0.08,,,0.49,0.00,VWS V14.01,2014-04-08 03:56:00,